KCFV/CFV METAR and TAF weather

Enter ICAO airport designator
Station Type Date Time Source
KCFV METAR 2019/06/26 17:52 UTC NOAA

KCFV 261752Z AUTO 20009KT 10SM FEW025 30/24 A3008 RMK AO2 SLP179 T03000239 10300 20194 51001


Station Type Date Time Source
KCFV Decoded METAR 2019/06/26 17:52 UTC NOAA

COFFEYVILLE MUNICIPAL AIRPORT , KS, United States (KCFV) 37-05N 95-34W 225M
Jun 26, 2019 - 01:52 PM EDT / 2019.06.26 1752 UTC
Wind: from the SSW (200 degrees) at 10 MPH (9 KT):0
Visibility: 10 mile(s):0
Sky conditions: mostly clear
Temperature: 86.0 F (30.0 C)
Heat index: 94.6 F (34.8 C):1
Dew Point: 75.0 F (23.9 C)
Relative Humidity: 69%
Pressure (altimeter): 30.08 in. Hg (1018 hPa)
Pressure tendency: 0.00 inches (0.1 hPa) higher than three hours ago
ob: KCFV 261752Z AUTO 20009KT 10SM FEW025 30/24 A3008 RMK AO2 SLP179 T03000239 10300 20194 51001
cycle: 18

Station Type Date Time Source
KCFV TAF UTC NOAA

Error!

Example: see airport list